sensor_id;sensor_type;location;lat;lon;timestamp;temperature;humidity
25208;DHT22;13153;52.316;21.166;2023-05-20T00:00:28;14.00;99.90
25208;DHT22;13153;52.316;21.166;2023-05-20T00:02:54;14.00;99.90
25208;DHT22;13153;52.316;21.166;2023-05-20T00:05:19;14.00;99.90
25208;DHT22;13153;52.316;21.166;2023-05-20T00:07:45;13.90;99.90
25208;DHT22;13153;52.316;21.166;2023-05-20T00:10:11;13.90;99.90
25208;DHT22;13153;52.316;21.166;2023-05-20T00:12:37;13.90;99.90
25208;DHT22;13153;52.316;21.166;2023-05-20T00:15:04;13.90;99.90
25208;DHT22;13153;52.316;21.166;2023-05-20T00:17:30;13.90;99.90
25208;DHT22;13153;52.316;21.166;2023-05-20T00:19:56;13.90;99.90
25208;DHT22;13153;52.316;21.166;2023-05-20T00:22:23;13.80;99.90
25208;DHT22;13153;52.316;21.166;2023-05-20T00:24:49;13.80;99.90
25208;DHT22;13153;52.316;21.166;2023-05-20T00:27:15;13.80;99.90
25208;DHT22;13153;52.316;21.166;2023-05-20T00:29:41;13.80;99.90
25208;DHT22;13153;52.316;21.166;2023-05-20T00:32:07;13.80;99.90
25208;DHT22;13153;52.316;21.166;2023-05-20T00:34:32;13.80;99.90
25208;DHT22;13153;52.316;21.166;2023-05-20T00:36:58;13.70;99.90
25208;DHT22;13153;52.316;21.166;2023-05-20T00:39:24;13.70;99.90
25208;DHT22;13153;52.316;21.166;2023-05-20T00:41:50;13.70;99.90
25208;DHT22;13153;52.316;21.166;2023-05-20T00:44:16;13.60;99.90
25208;DHT22;13153;52.316;21.166;2023-05-20T00:46:43;13.60;99.90
25208;DHT22;13153;52.316;21.166;2023-05-20T00:49:12;13.60;99.90
25208;DHT22;13153;52.316;21.166;2023-05-20T00:51:38;13.50;99.90
25208;DHT22;13153;52.316;21.166;2023-05-20T00:54:04;13.50;99.90
25208;DHT22;13153;52.316;21.166;2023-05-20T00:56:30;13.40;99.90
25208;DHT22;13153;52.316;21.166;2023-05-20T00:58:56;13.40;99.90
25208;DHT22;13153;52.316;21.166;2023-05-20T01:01:22;13.40;99.90
25208;DHT22;13153;52.316;21.166;2023-05-20T01:03:48;13.40;99.90
25208;DHT22;13153;52.316;21.166;2023-05-20T01:06:15;13.40;99.90
25208;DHT22;13153;52.316;21.166;2023-05-20T01:08:41;13.40;99.90
25208;DHT22;13153;52.316;21.166;2023-05-20T01:11:10;13.40;99.90
25208;DHT22;13153;52.316;21.166;2023-05-20T01:13:57;13.40;99.90
25208;DHT22;13153;52.316;21.166;2023-05-20T01:16:29;13.40;99.90
25208;DHT22;13153;52.316;21.166;2023-05-20T01:18:58;13.40;99.90
25208;DHT22;13153;52.316;21.166;2023-05-20T01:21:29;13.40;99.90
25208;DHT22;13153;52.316;21.166;2023-05-20T01:23:56;13.40;99.90
25208;DHT22;13153;52.316;21.166;2023-05-20T01:26:22;13.40;99.90
25208;DHT22;13153;52.316;21.166;2023-05-20T01:28:51;13.40;99.90
25208;DHT22;13153;52.316;21.166;2023-05-20T01:31:22;13.40;99.90
25208;DHT22;13153;52.316;21.166;2023-05-20T01:33:54;13.40;99.90
25208;DHT22;13153;52.316;21.166;2023-05-20T01:36:22;13.40;99.90
25208;DHT22;13153;52.316;21.166;2023-05-20T01:38:50;13.30;99.90
25208;DHT22;13153;52.316;21.166;2023-05-20T01:41:17;13.30;99.90
25208;DHT22;13153;52.316;21.166;2023-05-20T01:43:44;13.30;99.90
25208;DHT22;13153;52.316;21.166;2023-05-20T01:46:10;13.30;99.90
25208;DHT22;13153;52.316;21.166;2023-05-20T01:48:36;13.30;99.90
25208;DHT22;13153;52.316;21.166;2023-05-20T01:51:02;13.30;99.90
25208;DHT22;13153;52.316;21.166;2023-05-20T01:53:28;13.30;99.90
25208;DHT22;13153;52.316;21.166;2023-05-20T01:55:54;13.20;99.90
25208;DHT22;13153;52.316;21.166;2023-05-20T01:58:20;13.20;99.90
25208;DHT22;13153;52.316;21.166;2023-05-20T02:00:46;13.10;99.90
25208;DHT22;13153;52.316;21.166;2023-05-20T02:03:11;13.20;99.90
25208;DHT22;13153;52.316;21.166;2023-05-20T02:05:37;13.10;99.90
25208;DHT22;13153;52.316;21.166;2023-05-20T02:08:03;13.10;99.90
25208;DHT22;13153;52.316;21.166;2023-05-20T02:10:29;13.00;99.90
25208;DHT22;13153;52.316;21.166;2023-05-20T02:12:55;13.00;99.90
25208;DHT22;13153;52.316;21.166;2023-05-20T02:15:20;13.00;99.90
25208;DHT22;13153;52.316;21.166;2023-05-20T02:17:46;13.00;99.90
25208;DHT22;13153;52.316;21.166;2023-05-20T02:20:12;13.00;99.90
25208;DHT22;13153;52.316;21.166;2023-05-20T02:22:38;13.00;99.90
25208;DHT22;13153;52.316;21.166;2023-05-20T02:25:04;13.00;99.90
25208;DHT22;13153;52.316;21.166;2023-05-20T02:27:30;13.00;99.90
25208;DHT22;13153;52.316;21.166;2023-05-20T02:29:56;13.00;99.90
25208;DHT22;13153;52.316;21.166;2023-05-20T02:32:22;13.00;99.90
25208;DHT22;13153;52.316;21.166;2023-05-20T02:34:55;13.00;99.90
25208;DHT22;13153;52.316;21.166;2023-05-20T02:37:21;13.00;99.90
25208;DHT22;13153;52.316;21.166;2023-05-20T02:39:47;13.00;99.90
25208;DHT22;13153;52.316;21.166;2023-05-20T02:42:13;13.10;99.90
25208;DHT22;13153;52.316;21.166;2023-05-20T02:44:38;13.10;99.90
25208;DHT22;13153;52.316;21.166;2023-05-20T02:47:05;13.10;99.90
25208;DHT22;13153;52.316;21.166;2023-05-20T02:49:31;13.10;99.90
25208;DHT22;13153;52.316;21.166;2023-05-20T02:51:57;13.10;99.90
25208;DHT22;13153;52.316;21.166;2023-05-20T02:54:22;13.10;99.90
25208;DHT22;13153;52.316;21.166;2023-05-20T02:56:48;13.10;99.90
25208;DHT22;13153;52.316;21.166;2023-05-20T02:59:14;13.10;99.90
25208;DHT22;13153;52.316;21.166;2023-05-20T03:01:40;13.10;99.90
25208;DHT22;13153;52.316;21.166;2023-05-20T03:04:07;13.10;99.90
25208;DHT22;13153;52.316;21.166;2023-05-20T03:06:33;13.10;99.90
25208;DHT22;13153;52.316;21.166;2023-05-20T03:08:59;13.20;99.90
25208;DHT22;13153;52.316;21.166;2023-05-20T03:11:25;13.20;99.90
25208;DHT22;13153;52.316;21.166;2023-05-20T03:13:51;13.20;99.90
25208;DHT22;13153;52.316;21.166;2023-05-20T03:16:17;13.20;99.90
25208;DHT22;13153;52.316;21.166;2023-05-20T03:18:43;13.20;99.90
25208;DHT22;13153;52.316;21.166;2023-05-20T03:21:08;13.10;99.90
25208;DHT22;13153;52.316;21.166;2023-05-20T03:23:34;13.10;99.90
25208;DHT22;13153;52.316;21.166;2023-05-20T03:26:00;13.10;99.90
25208;DHT22;13153;52.316;21.166;2023-05-20T03:28:27;13.20;99.90
25208;DHT22;13153;52.316;21.166;2023-05-20T03:30:53;13.10;99.90
25208;DHT22;13153;52.316;21.166;2023-05-20T03:33:19;13.10;99.90
25208;DHT22;13153;52.316;21.166;2023-05-20T03:35:45;13.10;99.90
25208;DHT22;13153;52.316;21.166;2023-05-20T03:38:11;13.10;99.90
25208;DHT22;13153;52.316;21.166;2023-05-20T03:40:36;13.10;99.90
25208;DHT22;13153;52.316;21.166;2023-05-20T03:43:02;13.10;99.90
25208;DHT22;13153;52.316;21.166;2023-05-20T03:45:28;13.20;99.90
25208;DHT22;13153;52.316;21.166;2023-05-20T03:47:54;13.30;99.90
25208;DHT22;13153;52.316;21.166;2023-05-20T03:50:20;13.30;99.90
25208;DHT22;13153;52.316;21.166;2023-05-20T03:52:46;13.30;99.90
25208;DHT22;13153;52.316;21.166;2023-05-20T03:55:11;13.40;99.90
25208;DHT22;13153;52.316;21.166;2023-05-20T03:57:37;13.50;99.90
25208;DHT22;13153;52.316;21.166;2023-05-20T04:00:04;13.60;99.90
25208;DHT22;13153;52.316;21.166;2023-05-20T04:02:36;13.60;99.90
25208;DHT22;13153;52.316;21.166;2023-05-20T04:05:02;13.70;99.90
25208;DHT22;13153;52.316;21.166;2023-05-20T04:07:29;13.80;99.90
25208;DHT22;13153;52.316;21.166;2023-05-20T04:09:54;13.90;99.90
25208;DHT22;13153;52.316;21.166;2023-05-20T04:12:20;13.90;99.90
25208;DHT22;13153;52.316;21.166;2023-05-20T04:14:46;14.10;99.90
25208;DHT22;13153;52.316;21.166;2023-05-20T04:17:14;14.30;99.90
25208;DHT22;13153;52.316;21.166;2023-05-20T04:19:40;14.60;99.90
25208;DHT22;13153;52.316;21.166;2023-05-20T04:22:06;14.80;99.90
25208;DHT22;13153;52.316;21.166;2023-05-20T04:24:32;15.00;99.90
25208;DHT22;13153;52.316;21.166;2023-05-20T04:26:58;15.10;99.90
25208;DHT22;13153;52.316;21.166;2023-05-20T04:29:24;15.20;99.90
25208;DHT22;13153;52.316;21.166;2023-05-20T04:31:50;15.20;99.90
25208;DHT22;13153;52.316;21.166;2023-05-20T04:34:16;15.10;99.90
25208;DHT22;13153;52.316;21.166;2023-05-20T04:36:44;15.10;99.90
25208;DHT22;13153;52.316;21.166;2023-05-20T04:39:10;15.00;99.90
25208;DHT22;13153;52.316;21.166;2023-05-20T04:41:36;15.00;99.90
25208;DHT22;13153;52.316;21.166;2023-05-20T04:44:02;15.00;99.90
25208;DHT22;13153;52.316;21.166;2023-05-20T04:46:28;15.10;99.90
25208;DHT22;13153;52.316;21.166;2023-05-20T04:48:55;15.20;99.90
25208;DHT22;13153;52.316;21.166;2023-05-20T04:51:21;15.30;99.90
25208;DHT22;13153;52.316;21.166;2023-05-20T04:53:47;15.60;99.90
25208;DHT22;13153;52.316;21.166;2023-05-20T04:56:15;15.90;99.90
25208;DHT22;13153;52.316;21.166;2023-05-20T04:58:41;16.00;99.90
25208;DHT22;13153;52.316;21.166;2023-05-20T05:01:07;16.10;99.90
25208;DHT22;13153;52.316;21.166;2023-05-20T05:03:32;16.10;99.90
25208;DHT22;13153;52.316;21.166;2023-05-20T05:05:58;16.10;99.90
25208;DHT22;13153;52.316;21.166;2023-05-20T05:08:24;16.10;99.90
25208;DHT22;13153;52.316;21.166;2023-05-20T05:10:53;15.90;99.90
25208;DHT22;13153;52.316;21.166;2023-05-20T05:13:19;15.90;99.90
25208;DHT22;13153;52.316;21.166;2023-05-20T05:15:44;15.90;99.90
25208;DHT22;13153;52.316;21.166;2023-05-20T05:18:10;16.00;99.90
25208;DHT22;13153;52.316;21.166;2023-05-20T05:20:36;16.20;99.90
25208;DHT22;13153;52.316;21.166;2023-05-20T05:23:02;16.30;99.90
25208;DHT22;13153;52.316;21.166;2023-05-20T05:25:28;16.50;99.90
25208;DHT22;13153;52.316;21.166;2023-05-20T05:27:53;17.00;99.90
25208;DHT22;13153;52.316;21.166;2023-05-20T05:30:19;17.40;99.90
25208;DHT22;13153;52.316;21.166;2023-05-20T05:32:47;17.50;99.90
25208;DHT22;13153;52.316;21.166;2023-05-20T05:35:13;17.80;99.90
25208;DHT22;13153;52.316;21.166;2023-05-20T05:37:39;18.60;99.90
25208;DHT22;13153;52.316;21.166;2023-05-20T05:40:06;18.90;99.90
25208;DHT22;13153;52.316;21.166;2023-05-20T05:42:33;19.20;99.90
25208;DHT22;13153;52.316;21.166;2023-05-20T05:44:59;19.70;99.90
25208;DHT22;13153;52.316;21.166;2023-05-20T05:47:25;19.90;99.90
25208;DHT22;13153;52.316;21.166;2023-05-20T05:49:56;20.00;99.90
25208;DHT22;13153;52.316;21.166;2023-05-20T05:52:25;21.40;99.90
25208;DHT22;13153;52.316;21.166;2023-05-20T05:54:51;22.70;99.90
25208;DHT22;13153;52.316;21.166;2023-05-20T05:57:16;22.80;99.90
25208;DHT22;13153;52.316;21.166;2023-05-20T05:59:42;23.70;99.90
25208;DHT22;13153;52.316;21.166;2023-05-20T06:02:08;24.00;99.90
25208;DHT22;13153;52.316;21.166;2023-05-20T06:04:35;23.90;99.90
25208;DHT22;13153;52.316;21.166;2023-05-20T06:07:00;23.50;99.90
25208;DHT22;13153;52.316;21.166;2023-05-20T06:09:26;23.40;99.90
25208;DHT22;13153;52.316;21.166;2023-05-20T06:11:52;23.40;99.90
25208;DHT22;13153;52.316;21.166;2023-05-20T06:14:18;24.00;99.90
25208;DHT22;13153;52.316;21.166;2023-05-20T06:16:44;24.10;99.90
25208;DHT22;13153;52.316;21.166;2023-05-20T06:19:09;23.70;99.90
25208;DHT22;13153;52.316;21.166;2023-05-20T06:21:35;24.20;99.90
25208;DHT22;13153;52.316;21.166;2023-05-20T06:24:01;25.50;99.90
25208;DHT22;13153;52.316;21.166;2023-05-20T06:26:27;25.90;97.70
25208;DHT22;13153;52.316;21.166;2023-05-20T06:28:53;26.10;96.00
25208;DHT22;13153;52.316;21.166;2023-05-20T06:31:18;26.40;94.70
25208;DHT22;13153;52.316;21.166;2023-05-20T06:33:44;27.40;92.90
25208;DHT22;13153;52.316;21.166;2023-05-20T06:36:10;28.80;90.50
25208;DHT22;13153;52.316;21.166;2023-05-20T06:38:36;29.90;81.90
25208;DHT22;13153;52.316;21.166;2023-05-20T06:41:02;30.50;78.70
25208;DHT22;13153;52.316;21.166;2023-05-20T06:43:29;30.60;75.00
25208;DHT22;13153;52.316;21.166;2023-05-20T06:45:54;30.20;71.30
25208;DHT22;13153;52.316;21.166;2023-05-20T06:48:20;29.80;72.40
25208;DHT22;13153;52.316;21.166;2023-05-20T06:50:46;29.60;73.20
25208;DHT22;13153;52.316;21.166;2023-05-20T06:53:12;29.40;71.40
25208;DHT22;13153;52.316;21.166;2023-05-20T06:55:37;29.50;71.40
25208;DHT22;13153;52.316;21.166;2023-05-20T06:58:03;30.10;71.70
25208;DHT22;13153;52.316;21.166;2023-05-20T07:00:29;30.60;69.20
25208;DHT22;13153;52.316;21.166;2023-05-20T07:02:55;31.30;65.50
25208;DHT22;13153;52.316;21.166;2023-05-20T07:05:21;31.90;65.10
25208;DHT22;13153;52.316;21.166;2023-05-20T07:07:48;32.50;61.90
25208;DHT22;13153;52.316;21.166;2023-05-20T07:10:14;33.00;60.90
25208;DHT22;13153;52.316;21.166;2023-05-20T07:12:40;33.50;59.60
25208;DHT22;13153;52.316;21.166;2023-05-20T07:15:07;33.90;56.90
25208;DHT22;13153;52.316;21.166;2023-05-20T07:17:33;33.50;57.50
25208;DHT22;13153;52.316;21.166;2023-05-20T07:19:59;33.20;56.90
25208;DHT22;13153;52.316;21.166;2023-05-20T07:22:25;33.10;57.90
25208;DHT22;13153;52.316;21.166;2023-05-20T07:24:51;33.40;57.70
25208;DHT22;13153;52.316;21.166;2023-05-20T07:27:17;33.20;55.90
25208;DHT22;13153;52.316;21.166;2023-05-20T07:29:43;33.00;55.90
25208;DHT22;13153;52.316;21.166;2023-05-20T07:32:08;33.10;57.20
25208;DHT22;13153;52.316;21.166;2023-05-20T07:34:34;33.50;56.10
25208;DHT22;13153;52.316;21.166;2023-05-20T07:37:00;34.00;54.40
25208;DHT22;13153;52.316;21.166;2023-05-20T07:39:26;34.20;55.20
25208;DHT22;13153;52.316;21.166;2023-05-20T07:41:52;34.20;54.00
25208;DHT22;13153;52.316;21.166;2023-05-20T07:44:18;34.10;54.00
25208;DHT22;13153;52.316;21.166;2023-05-20T07:46:46;34.00;53.30
25208;DHT22;13153;52.316;21.166;2023-05-20T07:49:11;34.10;53.30
25208;DHT22;13153;52.316;21.166;2023-05-20T07:51:37;33.80;53.50
25208;DHT22;13153;52.316;21.166;2023-05-20T07:54:03;33.40;55.30
25208;DHT22;13153;52.316;21.166;2023-05-20T07:56:29;33.00;55.60
25208;DHT22;13153;52.316;21.166;2023-05-20T07:58:58;32.30;55.60
25208;DHT22;13153;52.316;21.166;2023-05-20T08:01:25;31.70;57.00
25208;DHT22;13153;52.316;21.166;2023-05-20T08:03:51;31.10;58.90
25208;DHT22;13153;52.316;21.166;2023-05-20T08:06:18;30.60;59.00
25208;DHT22;13153;52.316;21.166;2023-05-20T08:08:45;30.00;59.70
25208;DHT22;13153;52.316;21.166;2023-05-20T08:11:12;29.30;62.50
25208;DHT22;13153;52.316;21.166;2023-05-20T08:13:38;28.50;63.20
25208;DHT22;13153;52.316;21.166;2023-05-20T08:16:04;27.80;66.70
25208;DHT22;13153;52.316;21.166;2023-05-20T08:18:31;27.30;68.40
25208;DHT22;13153;52.316;21.166;2023-05-20T08:20:59;26.80;70.20
25208;DHT22;13153;52.316;21.166;2023-05-20T08:23:25;26.30;71.40
25208;DHT22;13153;52.316;21.166;2023-05-20T08:25:51;26.00;73.90
25208;DHT22;13153;52.316;21.166;2023-05-20T08:28:17;25.80;74.60
25208;DHT22;13153;52.316;21.166;2023-05-20T08:30:43;25.60;74.50
25208;DHT22;13153;52.316;21.166;2023-05-20T08:33:09;25.30;76.60
25208;DHT22;13153;52.316;21.166;2023-05-20T08:35:35;25.10;78.60
25208;DHT22;13153;52.316;21.166;2023-05-20T08:38:04;24.90;80.50
25208;DHT22;13153;52.316;21.166;2023-05-20T08:40:30;24.80;79.20
25208;DHT22;13153;52.316;21.166;2023-05-20T08:42:56;24.60;80.10
25208;DHT22;13153;52.316;21.166;2023-05-20T08:45:24;24.60;81.50
25208;DHT22;13153;52.316;21.166;2023-05-20T08:47:53;24.50;80.70
25208;DHT22;13153;52.316;21.166;2023-05-20T08:50:19;24.40;82.70
25208;DHT22;13153;52.316;21.166;2023-05-20T08:52:47;24.10;84.60
25208;DHT22;13153;52.316;21.166;2023-05-20T08:55:24;23.90;84.30
25208;DHT22;13153;52.316;21.166;2023-05-20T08:57:55;23.80;84.80
25208;DHT22;13153;52.316;21.166;2023-05-20T09:00:22;23.70;86.40
25208;DHT22;13153;52.316;21.166;2023-05-20T09:02:53;23.70;89.40
25208;DHT22;13153;52.316;21.166;2023-05-20T09:05:20;23.70;90.10
25208;DHT22;13153;52.316;21.166;2023-05-20T09:07:47;23.80;90.00
25208;DHT22;13153;52.316;21.166;2023-05-20T09:10:13;23.70;88.00
25208;DHT22;13153;52.316;21.166;2023-05-20T09:12:40;23.60;89.90
25208;DHT22;13153;52.316;21.166;2023-05-20T09:15:06;23.50;91.00
25208;DHT22;13153;52.316;21.166;2023-05-20T09:17:36;23.40;91.10
25208;DHT22;13153;52.316;21.166;2023-05-20T09:20:10;23.50;92.00
25208;DHT22;13153;52.316;21.166;2023-05-20T09:22:37;23.60;92.60
25208;DHT22;13153;52.316;21.166;2023-05-20T09:25:04;23.70;91.70
25208;DHT22;13153;52.316;21.166;2023-05-20T09:27:31;23.80;92.90
25208;DHT22;13153;52.316;21.166;2023-05-20T09:29:57;23.80;91.80
25208;DHT22;13153;52.316;21.166;2023-05-20T09:32:23;23.70;91.40
25208;DHT22;13153;52.316;21.166;2023-05-20T09:34:51;23.50;91.60
25208;DHT22;13153;52.316;21.166;2023-05-20T09:37:17;23.50;92.70
25208;DHT22;13153;52.316;21.166;2023-05-20T09:39:54;23.40;92.60
25208;DHT22;13153;52.316;21.166;2023-05-20T09:42:39;23.30;93.30
25208;DHT22;13153;52.316;21.166;2023-05-20T09:45:08;23.40;95.20
25208;DHT22;13153;52.316;21.166;2023-05-20T09:47:37;23.50;94.10
25208;DHT22;13153;52.316;21.166;2023-05-20T09:50:08;23.40;93.80
25208;DHT22;13153;52.316;21.166;2023-05-20T09:52:36;23.40;94.70
25208;DHT22;13153;52.316;21.166;2023-05-20T09:55:04;23.50;95.30
25208;DHT22;13153;52.316;21.166;2023-05-20T09:57:34;23.50;96.10
25208;DHT22;13153;52.316;21.166;2023-05-20T10:00:02;23.60;94.90
25208;DHT22;13153;52.316;21.166;2023-05-20T10:02:31;23.70;95.00
25208;DHT22;13153;52.316;21.166;2023-05-20T10:05:00;23.80;95.20
25208;DHT22;13153;52.316;21.166;2023-05-20T10:11:21;23.80;95.80
25208;DHT22;13153;52.316;21.166;2023-05-20T10:16:50;23.60;95.50
25208;DHT22;13153;52.316;21.166;2023-05-20T10:22:05;23.50;95.40
25208;DHT22;13153;52.316;21.166;2023-05-20T10:24:44;23.40;95.70
25208;DHT22;13153;52.316;21.166;2023-05-20T10:27:11;23.30;97.60
25208;DHT22;13153;52.316;21.166;2023-05-20T10:32:30;23.40;96.30
25208;DHT22;13153;52.316;21.166;2023-05-20T10:35:06;23.50;96.90
25208;DHT22;13153;52.316;21.166;2023-05-20T10:37:42;23.50;98.20
25208;DHT22;13153;52.316;21.166;2023-05-20T10:40:20;23.50;97.70
25208;DHT22;13153;52.316;21.166;2023-05-20T10:42:47;23.40;96.70
25208;DHT22;13153;52.316;21.166;2023-05-20T10:45:33;23.40;97.20
25208;DHT22;13153;52.316;21.166;2023-05-20T10:48:02;23.20;96.70
25208;DHT22;13153;52.316;21.166;2023-05-20T10:50:35;23.20;98.30
25208;DHT22;13153;52.316;21.166;2023-05-20T10:53:06;23.20;98.50
25208;DHT22;13153;52.316;21.166;2023-05-20T10:55:40;23.20;97.50
25208;DHT22;13153;52.316;21.166;2023-05-20T10:58:11;23.20;97.60
25208;DHT22;13153;52.316;21.166;2023-05-20T11:00:39;23.10;98.00
25208;DHT22;13153;52.316;21.166;2023-05-20T11:03:06;23.00;98.40
25208;DHT22;13153;52.316;21.166;2023-05-20T11:05:32;23.00;98.80
25208;DHT22;13153;52.316;21.166;2023-05-20T11:08:03;22.90;99.70
25208;DHT22;13153;52.316;21.166;2023-05-20T11:10:32;23.00;99.90
25208;DHT22;13153;52.316;21.166;2023-05-20T11:13:00;23.00;99.30
25208;DHT22;13153;52.316;21.166;2023-05-20T11:15:27;23.10;99.90
25208;DHT22;13153;52.316;21.166;2023-05-20T11:17:56;23.20;99.90
25208;DHT22;13153;52.316;21.166;2023-05-20T11:20:26;23.20;99.90
25208;DHT22;13153;52.316;21.166;2023-05-20T11:22:53;23.10;99.90
25208;DHT22;13153;52.316;21.166;2023-05-20T11:25:21;23.20;99.90
25208;DHT22;13153;52.316;21.166;2023-05-20T11:27:48;23.20;99.90
25208;DHT22;13153;52.316;21.166;2023-05-20T11:30:16;23.20;99.90
25208;DHT22;13153;52.316;21.166;2023-05-20T11:33:01;23.20;99.30
25208;DHT22;13153;52.316;21.166;2023-05-20T11:35:30;23.30;99.40
25208;DHT22;13153;52.316;21.166;2023-05-20T11:38:02;23.30;99.90
25208;DHT22;13153;52.316;21.166;2023-05-20T11:40:31;23.30;99.80
25208;DHT22;13153;52.316;21.166;2023-05-20T11:42:59;23.20;99.90
25208;DHT22;13153;52.316;21.166;2023-05-20T11:45:37;23.10;99.90
25208;DHT22;13153;52.316;21.166;2023-05-20T11:48:05;23.10;99.90
25208;DHT22;13153;52.316;21.166;2023-05-20T11:50:38;23.00;99.90
25208;DHT22;13153;52.316;21.166;2023-05-20T11:53:08;22.90;99.90
25208;DHT22;13153;52.316;21.166;2023-05-20T11:58:20;22.80;99.90
25208;DHT22;13153;52.316;21.166;2023-05-20T12:00:47;22.70;99.90
25208;DHT22;13153;52.316;21.166;2023-05-20T12:03:13;22.70;99.90
25208;DHT22;13153;52.316;21.166;2023-05-20T12:05:39;22.70;99.90
25208;DHT22;13153;52.316;21.166;2023-05-20T12:08:05;22.70;99.90
25208;DHT22;13153;52.316;21.166;2023-05-20T12:10:32;22.80;99.90
25208;DHT22;13153;52.316;21.166;2023-05-20T12:12:58;22.80;99.90
25208;DHT22;13153;52.316;21.166;2023-05-20T12:15:24;22.80;99.90
25208;DHT22;13153;52.316;21.166;2023-05-20T12:17:51;22.90;99.90
25208;DHT22;13153;52.316;21.166;2023-05-20T12:20:20;22.80;99.90
25208;DHT22;13153;52.316;21.166;2023-05-20T12:22:47;22.80;99.90
25208;DHT22;13153;52.316;21.166;2023-05-20T12:25:15;22.80;99.90
25208;DHT22;13153;52.316;21.166;2023-05-20T12:27:44;22.80;99.90
25208;DHT22;13153;52.316;21.166;2023-05-20T12:30:19;22.90;99.90
25208;DHT22;13153;52.316;21.166;2023-05-20T12:32:47;23.00;99.90
25208;DHT22;13153;52.316;21.166;2023-05-20T12:35:15;23.00;99.90
25208;DHT22;13153;52.316;21.166;2023-05-20T12:37:42;23.00;99.90
25208;DHT22;13153;52.316;21.166;2023-05-20T12:40:10;23.00;99.90
25208;DHT22;13153;52.316;21.166;2023-05-20T12:42:38;23.00;99.90
25208;DHT22;13153;52.316;21.166;2023-05-20T12:45:06;22.90;99.90
25208;DHT22;13153;52.316;21.166;2023-05-20T12:47:33;22.90;99.90
25208;DHT22;13153;52.316;21.166;2023-05-20T12:50:00;22.90;99.90
25208;DHT22;13153;52.316;21.166;2023-05-20T12:52:27;22.90;99.90
25208;DHT22;13153;52.316;21.166;2023-05-20T12:54:53;22.80;99.90
25208;DHT22;13153;52.316;21.166;2023-05-20T12:57:20;22.90;99.90
25208;DHT22;13153;52.316;21.166;2023-05-20T12:59:48;22.80;99.90
25208;DHT22;13153;52.316;21.166;2023-05-20T13:02:14;22.90;99.90
25208;DHT22;13153;52.316;21.166;2023-05-20T13:04:39;22.90;99.90
25208;DHT22;13153;52.316;21.166;2023-05-20T13:07:05;22.90;99.90
25208;DHT22;13153;52.316;21.166;2023-05-20T13:09:31;22.90;99.90
25208;DHT22;13153;52.316;21.166;2023-05-20T13:11:59;22.90;99.90
25208;DHT22;13153;52.316;21.166;2023-05-20T13:14:25;22.80;99.90
25208;DHT22;13153;52.316;21.166;2023-05-20T13:16:51;22.90;99.90
25208;DHT22;13153;52.316;21.166;2023-05-20T13:19:21;22.90;99.90
25208;DHT22;13153;52.316;21.166;2023-05-20T13:21:48;22.90;99.90
25208;DHT22;13153;52.316;21.166;2023-05-20T13:24:16;23.00;99.90
25208;DHT22;13153;52.316;21.166;2023-05-20T13:26:42;23.00;99.90
25208;DHT22;13153;52.316;21.166;2023-05-20T13:29:10;23.00;99.90
25208;DHT22;13153;52.316;21.166;2023-05-20T13:31:36;23.10;99.90
25208;DHT22;13153;52.316;21.166;2023-05-20T13:34:02;23.10;99.90
25208;DHT22;13153;52.316;21.166;2023-05-20T13:36:28;23.10;99.90
25208;DHT22;13153;52.316;21.166;2023-05-20T13:38:55;23.10;99.90
25208;DHT22;13153;52.316;21.166;2023-05-20T13:41:21;23.10;99.90
25208;DHT22;13153;52.316;21.166;2023-05-20T13:43:49;23.00;99.90
25208;DHT22;13153;52.316;21.166;2023-05-20T13:46:15;23.00;99.90
25208;DHT22;13153;52.316;21.166;2023-05-20T13:48:41;23.00;99.90
25208;DHT22;13153;52.316;21.166;2023-05-20T13:51:07;23.00;99.90
25208;DHT22;13153;52.316;21.166;2023-05-20T13:53:33;23.00;99.90
25208;DHT22;13153;52.316;21.166;2023-05-20T13:55:59;23.00;99.90
25208;DHT22;13153;52.316;21.166;2023-05-20T13:58:25;23.00;99.90
25208;DHT22;13153;52.316;21.166;2023-05-20T14:00:51;22.90;99.90
25208;DHT22;13153;52.316;21.166;2023-05-20T14:03:16;23.00;99.90
25208;DHT22;13153;52.316;21.166;2023-05-20T14:05:42;22.90;99.90
25208;DHT22;13153;52.316;21.166;2023-05-20T14:08:08;22.90;99.90
25208;DHT22;13153;52.316;21.166;2023-05-20T14:10:34;22.90;99.90
25208;DHT22;13153;52.316;21.166;2023-05-20T14:13:00;22.90;99.90
25208;DHT22;13153;52.316;21.166;2023-05-20T14:15:26;22.90;99.90
25208;DHT22;13153;52.316;21.166;2023-05-20T14:17:58;22.90;99.90
25208;DHT22;13153;52.316;21.166;2023-05-20T14:20:24;22.90;99.90
25208;DHT22;13153;52.316;21.166;2023-05-20T14:22:53;22.90;99.90
25208;DHT22;13153;52.316;21.166;2023-05-20T14:25:19;22.90;99.90
25208;DHT22;13153;52.316;21.166;2023-05-20T14:27:45;22.90;99.90
25208;DHT22;13153;52.316;21.166;2023-05-20T14:30:11;22.90;99.90
25208;DHT22;13153;52.316;21.166;2023-05-20T14:32:37;22.90;99.90
25208;DHT22;13153;52.316;21.166;2023-05-20T14:35:03;22.80;99.90
25208;DHT22;13153;52.316;21.166;2023-05-20T14:37:30;22.90;99.90
25208;DHT22;13153;52.316;21.166;2023-05-20T14:39:55;22.90;99.90
25208;DHT22;13153;52.316;21.166;2023-05-20T14:42:21;22.90;99.90
25208;DHT22;13153;52.316;21.166;2023-05-20T14:44:47;22.90;99.90
25208;DHT22;13153;52.316;21.166;2023-05-20T14:47:13;22.90;99.90
25208;DHT22;13153;52.316;21.166;2023-05-20T14:49:44;22.90;99.90
25208;DHT22;13153;52.316;21.166;2023-05-20T14:52:10;22.90;99.90
25208;DHT22;13153;52.316;21.166;2023-05-20T14:54:36;23.00;99.90
25208;DHT22;13153;52.316;21.166;2023-05-20T14:57:03;23.00;99.90
25208;DHT22;13153;52.316;21.166;2023-05-20T14:59:31;23.00;99.90
25208;DHT22;13153;52.316;21.166;2023-05-20T15:01:57;23.10;99.90
25208;DHT22;13153;52.316;21.166;2023-05-20T15:04:23;23.10;99.90
25208;DHT22;13153;52.316;21.166;2023-05-20T15:06:49;23.10;99.90
25208;DHT22;13153;52.316;21.166;2023-05-20T15:09:15;23.10;99.90
25208;DHT22;13153;52.316;21.166;2023-05-20T15:11:41;23.00;99.90
25208;DHT22;13153;52.316;21.166;2023-05-20T15:14:07;23.00;99.90
25208;DHT22;13153;52.316;21.166;2023-05-20T15:16:32;23.00;99.90
25208;DHT22;13153;52.316;21.166;2023-05-20T15:18:58;22.90;99.90
25208;DHT22;13153;52.316;21.166;2023-05-20T15:21:24;22.90;99.90
25208;DHT22;13153;52.316;21.166;2023-05-20T15:23:50;22.90;99.90
25208;DHT22;13153;52.316;21.166;2023-05-20T15:26:15;22.90;99.90
25208;DHT22;13153;52.316;21.166;2023-05-20T15:28:41;22.90;99.90